Time;durP1;ratioP1;P1;durP2;ratioP2;P2;SDS_P1;SDS_P2;PMS_P1;PMS_P2;Temp;Humidity;BMP_temperature;BMP_pressure;BME280_temperature;BME280_humidity;BME280_pressure;Samples;Min_cycle;Max_cycle;Signal;HPM_P1;HPM_P2
2022/06/14 00:01:22;;;;;;;;;;;;;;;;;;5034597;28;20341;-63
2022/06/14 00:03:49;;;;;;;;;;;;;;;;;;5034924;28;19979;-63
2022/06/14 00:06:16;;;;;;;;;;;;;;;;;;5034379;28;19933;-63
2022/06/14 00:08:43;;;;;;;;;;;;;;;;;;5034670;28;19925;-63
2022/06/14 00:11:11;;;;;;;;;;;;;;;;;;5034170;28;19926;-62
2022/06/14 00:13:37;;;;;;;;;;;;;;;;;;5034704;28;19932;-63
2022/06/14 00:16:04;;;;;;;;;;;;;;;;;;5034680;28;19932;-62
2022/06/14 00:18:32;;;;;;;;;;;;;;;;;;5034581;28;19932;-62
2022/06/14 00:20:59;;;;;;;;;;;;;;;;;;5034106;28;19925;-61
2022/06/14 00:23:26;;;;;;;;;;;;;;;;;;5034357;28;19983;-62
2022/06/14 00:25:54;;;;;;;;;;;;;;;;;;5034395;28;19952;-62
2022/06/14 00:28:21;;;;;;;;;;;;;;;;;;5034421;28;20390;-61
2022/06/14 00:30:48;;;;;;;;;;;;;;;;;;5034281;28;19929;-62
2022/06/14 00:33:15;;;;;;;;;;;;;;;;;;5034168;28;20286;-62
2022/06/14 00:35:43;;;;;;;;;;;;;;;;;;5034313;28;19929;-62
2022/06/14 00:38:10;;;;;;;;;;;;;;;;;;5034264;28;19925;-62
2022/06/14 00:40:37;;;;;;;;;;;;;;;;;;5033999;28;19929;-62
2022/06/14 00:43:05;;;;;;;;;;;;;;;;;;5034007;28;20297;-62
2022/06/14 00:45:50;;;;;;;;;;;;;;;;;;5034044;28;20262;-61
2022/06/14 00:48:19;;;;;;;;;;;;;;;;;;5033945;28;19925;-65
2022/06/14 00:50:49;;;;;;;;;;;;;;;;;;5033605;28;20115;-62
2022/06/14 00:53:19;;;;;;;;;;;;;;;;;;5033861;28;20036;-61
2022/06/14 00:55:47;;;;;;;;;;;;;;;;;;5033990;28;19925;-62
2022/06/14 00:58:15;;;;;;;;;;;;;;;;;;5034874;28;19929;-62
2022/06/14 01:00:47;;;;;;;;;;;;;;;;;;5053414;28;19933;-62
2022/06/14 01:03:16;;;;;;;;;;;;;;;;;;5053552;28;19932;-62
2022/06/14 01:08:29;;;;;;;;;;;;;;;;;;5049890;28;19924;-62
2022/06/14 01:10:55;;;;;;;;;;;;;;;;;;5053090;28;20385;-62
2022/06/14 01:13:23;;;;;;;;;;;;;;;;;;5053389;28;20007;-62
2022/06/14 01:15:50;;;;;;;;;;;;;;;;;;5052693;28;19979;-62
2022/06/14 01:18:17;;;;;;;;;;;;;;;;;;5052996;28;19925;-61
2022/06/14 01:20:44;;;;;;;;;;;;;;;;;;5053263;28;19932;-62
2022/06/14 01:23:14;;;;;;;;;;;;;;;;;;5053217;28;19925;-62
2022/06/14 01:25:41;;;;;;;;;;;;;;;;;;5053188;28;19924;-61
2022/06/14 01:28:10;;;;;;;;;;;;;;;;;;5053290;28;19929;-62
2022/06/14 01:30:41;;;;;;;;;;;;;;;;;;5052822;28;19932;-61
2022/06/14 01:33:09;;;;;;;;;;;;;;;;;;5053275;28;19925;-62
2022/06/14 01:35:37;;;;;;;;;;;;;;;;;;5053245;28;20006;-62
2022/06/14 01:38:05;;;;;;;;;;;;;;;;;;5052937;28;19932;-62
2022/06/14 01:40:36;;;;;;;;;;;;;;;;;;5052536;28;20413;-62
2022/06/14 01:43:12;;;;;;;;;;;;;;;;;;5052996;28;19924;-62
2022/06/14 01:45:42;;;;;;;;;;;;;;;;;;5052807;28;19924;-62
2022/06/14 01:48:13;;;;;;;;;;;;;;;;;;5052898;28;19968;-63
2022/06/14 01:53:35;;;;;;;;;;;;;;;;;;5052856;28;19974;-63
2022/06/14 01:56:06;;;;;;;;;;;;;;;;;;5052605;28;19990;-63
2022/06/14 01:58:35;;;;;;;;;;;;;;;;;;5048885;28;19926;-63
2022/06/14 02:01:07;;;;;;;;;;;;;;;;;;5044245;22;19929;-61
2022/06/14 02:06:25;;;;;;;;;;;;;;;;;;5032880;28;19936;-61
2022/06/14 02:08:54;;;;;;;;;;;;;;;;;;5032812;28;20447;-62
2022/06/14 02:11:25;;;;;;;;;;;;;;;;;;5032418;28;20332;-62
2022/06/14 02:13:54;;;;;;;;;;;;;;;;;;5032844;28;19929;-62
2022/06/14 02:16:24;;;;;;;;;;;;;;;;;;5032529;28;19925;-62
2022/06/14 02:18:55;;;;;;;;;;;;;;;;;;5032697;28;19932;-62
2022/06/14 02:21:24;;;;;;;;;;;;;;;;;;5032239;28;19929;-63
2022/06/14 02:23:55;;;;;;;;;;;;;;;;;;5032494;28;20016;-62
2022/06/14 02:26:26;;;;;;;;;;;;;;;;;;5032876;28;19929;-62
2022/06/14 02:28:55;;;;;;;;;;;;;;;;;;5032467;28;19929;-62
2022/06/14 02:31:24;;;;;;;;;;;;;;;;;;5032874;28;19929;-63
2022/06/14 02:33:55;;;;;;;;;;;;;;;;;;5032912;28;19925;-62
2022/06/14 02:36:25;;;;;;;;;;;;;;;;;;5033111;28;19931;-61
2022/06/14 02:38:54;;;;;;;;;;;;;;;;;;5032570;28;19935;-64
2022/06/14 02:41:22;;;;;;;;;;;;;;;;;;5032121;28;19960;-64
2022/06/14 02:43:53;;;;;;;;;;;;;;;;;;5032801;28;19983;-64
2022/06/14 02:46:22;;;;;;;;;;;;;;;;;;5033348;28;20331;-63
2022/06/14 02:48:50;;;;;;;;;;;;;;;;;;5033176;28;19929;-63
2022/06/14 02:51:19;;;;;;;;;;;;;;;;;;5032503;28;19929;-64
2022/06/14 02:53:47;;;;;;;;;;;;;;;;;;5032378;28;19925;-65
2022/06/14 02:56:16;;;;;;;;;;;;;;;;;;5032255;28;19925;-64
2022/06/14 02:58:45;;;;;;;;;;;;;;;;;;5026956;28;19972;-63
2022/06/14 03:01:16;;;;;;;;;;;;;;;;;;5011835;28;19926;-63
2022/06/14 03:03:45;;;;;;;;;;;;;;;;;;5012324;28;19955;-63
2022/06/14 03:06:14;;;;;;;;;;;;;;;;;;5012739;28;19933;-64
2022/06/14 03:08:46;;;;;;;;;;;;;;;;;;5012344;28;19929;-64
2022/06/14 03:11:17;;;;;;;;;;;;;;;;;;5012138;28;19926;-65
2022/06/14 03:13:48;;;;;;;;;;;;;;;;;;5012705;28;19980;-64
2022/06/14 03:16:20;;;;;;;;;;;;;;;;;;5012013;28;20368;-63
2022/06/14 03:18:51;;;;;;;;;;;;;;;;;;5012635;28;19930;-64
2022/06/14 03:21:19;;;;;;;;;;;;;;;;;;5012127;28;19951;-64
2022/06/14 03:23:50;;;;;;;;;;;;;;;;;;5013104;28;20303;-64
2022/06/14 03:26:22;;;;;;;;;;;;;;;;;;5012657;28;20031;-63
2022/06/14 03:28:51;;;;;;;;;;;;;;;;;;5012669;28;19929;-64
2022/06/14 03:31:22;;;;;;;;;;;;;;;;;;5011642;28;19930;-63
2022/06/14 03:33:50;;;;;;;;;;;;;;;;;;5012508;28;19926;-64
2022/06/14 03:36:17;;;;;;;;;;;;;;;;;;5012056;28;20345;-65
2022/06/14 03:38:47;;;;;;;;;;;;;;;;;;5012159;28;19929;-63
2022/06/14 03:41:15;;;;;;;;;;;;;;;;;;5014895;28;19948;-64
2022/06/14 03:43:42;;;;;;;;;;;;;;;;;;5015485;28;20023;-63
2022/06/14 03:46:11;;;;;;;;;;;;;;;;;;5015538;28;20333;-64
2022/06/14 03:48:40;;;;;;;;;;;;;;;;;;5015370;28;19960;-64
2022/06/14 03:51:10;;;;;;;;;;;;;;;;;;5014839;28;19929;-64
2022/06/14 03:53:48;;;;;;;;;;;;;;;;;;5015607;28;19933;-64
2022/06/14 03:56:19;;;;;;;;;;;;;;;;;;5015168;28;19926;-65
2022/06/14 03:58:55;;;;;;;;;;;;;;;;;;5015515;28;20012;-64
2022/06/14 04:01:24;;;;;;;;;;;;;;;;;;5015404;28;20294;-65
2022/06/14 04:04:05;;;;;;;;;;;;;;;;;;5015151;28;19972;-65
2022/06/14 04:06:36;;;;;;;;;;;;;;;;;;5015267;28;19925;-65
2022/06/14 04:09:09;;;;;;;;;;;;;;;;;;5015602;28;19937;-65
2022/06/14 04:11:44;;;;;;;;;;;;;;;;;;5014983;28;19925;-65
2022/06/14 04:14:19;;;;;;;;;;;;;;;;;;5015028;28;20342;-65
2022/06/14 04:16:51;;;;;;;;;;;;;;;;;;5015201;28;20353;-65
2022/06/14 04:19:26;;;;;;;;;;;;;;;;;;5014681;28;19925;-65
2022/06/14 04:21:54;;;;;;;;;;;;;;;;;;5014922;28;19950;-65
2022/06/14 04:24:24;;;;;;;;;;;;;;;;;;5015063;28;19926;-64
2022/06/14 04:26:54;;;;;;;;;;;;;;;;;;5014890;28;19930;-64
2022/06/14 04:29:23;;;;;;;;;;;;;;;;;;5014613;28;19996;-64
2022/06/14 04:31:52;;;;;;;;;;;;;;;;;;5014667;28;19929;-64
2022/06/14 04:34:22;;;;;;;;;;;;;;;;;;5014564;28;19932;-64
2022/06/14 04:36:54;;;;;;;;;;;;;;;;;;5014199;28;19926;-65
2022/06/14 04:39:25;;;;;;;;;;;;;;;;;;5014293;28;20413;-64
2022/06/14 04:41:55;;;;;;;;;;;;;;;;;;5015136;28;19925;-65
2022/06/14 04:44:25;;;;;;;;;;;;;;;;;;5014943;28;19952;-65
2022/06/14 04:46:53;;;;;;;;;;;;;;;;;;5014359;28;19983;-65
2022/06/14 04:49:24;;;;;;;;;;;;;;;;;;5014332;28;19935;-64
2022/06/14 04:51:52;;;;;;;;;;;;;;;;;;5014806;28;19933;-65
2022/06/14 04:54:21;;;;;;;;;;;;;;;;;;5014527;28;19949;-65
2022/06/14 04:56:51;;;;;;;;;;;;;;;;;;5014180;28;19975;-65
2022/06/14 04:59:18;;;;;;;;;;;;;;;;;;5024563;28;20438;-65
2022/06/14 05:01:46;;;;;;;;;;;;;;;;;;5034240;28;19925;-65
2022/06/14 05:04:15;;;;;;;;;;;;;;;;;;5034039;28;19929;-65
2022/06/14 05:06:46;;;;;;;;;;;;;;;;;;5034050;28;19925;-64
2022/06/14 05:09:15;;;;;;;;;;;;;;;;;;5034277;28;19926;-64
2022/06/14 05:11:44;;;;;;;;;;;;;;;;;;5033457;28;19964;-64
2022/06/14 05:14:14;;;;;;;;;;;;;;;;;;5033741;28;19971;-63
2022/06/14 05:16:43;;;;;;;;;;;;;;;;;;5033082;28;19982;-64
2022/06/14 05:19:13;;;;;;;;;;;;;;;;;;5033738;28;20386;-64
2022/06/14 05:21:44;;;;;;;;;;;;;;;;;;5033391;28;19932;-64
2022/06/14 05:24:12;;;;;;;;;;;;;;;;;;5034224;28;19956;-64
2022/06/14 05:26:45;;;;;;;;;;;;;;;;;;5033879;28;19932;-64
2022/06/14 05:29:16;;;;;;;;;;;;;;;;;;5034402;28;19925;-63
2022/06/14 05:31:48;;;;;;;;;;;;;;;;;;5033215;28;19925;-64
2022/06/14 05:34:21;;;;;;;;;;;;;;;;;;5033986;28;20386;-64
2022/06/14 05:36:52;;;;;;;;;;;;;;;;;;5033967;28;19925;-63
2022/06/14 05:39:22;;;;;;;;;;;;;;;;;;5034215;28;19925;-65
2022/06/14 05:41:50;;;;;;;;;;;;;;;;;;5034577;28;19925;-65
2022/06/14 05:44:21;;;;;;;;;;;;;;;;;;5034084;28;19925;-64
2022/06/14 05:46:49;;;;;;;;;;;;;;;;;;5033194;28;19925;-64
2022/06/14 05:49:20;;;;;;;;;;;;;;;;;;5032944;28;19936;-62
2022/06/14 05:51:48;;;;;;;;;;;;;;;;;;5033186;28;19925;-64
2022/06/14 05:54:18;;;;;;;;;;;;;;;;;;5033421;28;19933;-64
2022/06/14 05:56:49;;;;;;;;;;;;;;;;;;5033120;28;19936;-63
2022/06/14 05:59:21;;;;;;;;;;;;;;;;;;5022951;28;19933;-63
2022/06/14 06:01:51;;;;;;;;;;;;;;;;;;5012890;28;20048;-63
2022/06/14 06:04:21;;;;;;;;;;;;;;;;;;5012918;28;19933;-62
2022/06/14 06:06:50;;;;;;;;;;;;;;;;;;5013304;28;20337;-64
2022/06/14 06:09:20;;;;;;;;;;;;;;;;;;5012659;28;20301;-65
2022/06/14 06:11:51;;;;;;;;;;;;;;;;;;5013042;28;19930;-64
2022/06/14 06:14:20;;;;;;;;;;;;;;;;;;5013608;28;19926;-63
2022/06/14 06:16:49;;;;;;;;;;;;;;;;;;5017510;28;19932;-64
2022/06/14 06:19:17;;;;;;;;;;;;;;;;;;5027003;28;20027;-63
2022/06/14 06:21:48;;;;;;;;;;;;;;;;;;5032734;28;19930;-63
2022/06/14 06:24:16;;;;;;;;;;;;;;;;;;5033384;28;20437;-63
2022/06/14 06:26:45;;;;;;;;;;;;;;;;;;5032931;28;19953;-63
2022/06/14 06:29:17;;;;;;;;;;;;;;;;;;5023461;28;19933;-63
2022/06/14 06:31:44;;;;;;;;;;;;;;;;;;5023210;28;19936;-64
2022/06/14 06:34:13;;;;;;;;;;;;;;;;;;5019439;28;19948;-64
2022/06/14 06:36:49;;;;;;;;;;;;;;;;;;5021136;28;20315;-62
2022/06/14 06:39:26;;;;;;;;;;;;;;;;;;5016161;28;19929;-70
2022/06/14 06:41:55;;;;;;;;;;;;;;;;;;5011242;28;19925;-66
2022/06/14 06:44:39;;;;;;;;;;;;;;;;;;5011113;28;20233;-63
2022/06/14 06:47:10;;;;;;;;;;;;;;;;;;5011015;28;19932;-64
2022/06/14 06:49:41;;;;;;;;;;;;;;;;;;5012478;28;19964;-63
2022/06/14 06:52:10;;;;;;;;;;;;;;;;;;5019510;28;19933;-64
2022/06/14 06:54:39;;;;;;;;;;;;;;;;;;5018705;28;20000;-63
2022/06/14 06:57:07;;;;;;;;;;;;;;;;;;5020833;28;19925;-65
2022/06/14 06:59:37;;;;;;;;;;;;;;;;;;5018989;28;20318;-65
2022/06/14 07:02:10;;;;;;;;;;;;;;;;;;5014777;28;19925;-65
2022/06/14 07:07:23;;;;;;;;;;;;;;;;;;5011379;28;20468;-63
2022/06/14 07:09:53;;;;;;;;;;;;;;;;;;5010539;28;19961;-65
2022/06/14 07:12:22;;;;;;;;;;;;;;;;;;5011207;28;19947;-64
2022/06/14 07:14:52;;;;;;;;;;;;;;;;;;5012409;28;20346;-64
2022/06/14 07:17:34;;;;;;;;;;;;;;;;;;5015896;28;19929;-65
2022/06/14 07:20:02;;;;;;;;;;;;;;;;;;5034827;28;19931;-65
2022/06/14 07:22:32;;;;;;;;;;;;;;;;;;5033581;28;19933;-65
2022/06/14 07:25:02;;;;;;;;;;;;;;;;;;5034054;28;20306;-65
2022/06/14 07:27:31;;;;;;;;;;;;;;;;;;5034227;28;19929;-64
2022/06/14 07:30:01;;;;;;;;;;;;;;;;;;5033998;28;19948;-64
2022/06/14 07:32:30;;;;;;;;;;;;;;;;;;5033823;28;19925;-64
2022/06/14 07:34:57;;;;;;;;;;;;;;;;;;5034002;28;19925;-64
2022/06/14 07:37:26;;;;;;;;;;;;;;;;;;5033717;28;20134;-63
2022/06/14 07:39:57;;;;;;;;;;;;;;;;;;5033595;28;19976;-64
2022/06/14 07:42:26;;;;;;;;;;;;;;;;;;5034330;28;19925;-64
2022/06/14 07:44:56;;;;;;;;;;;;;;;;;;5029526;28;19926;-64
2022/06/14 07:47:27;;;;;;;;;;;;;;;;;;5032205;28;19925;-64
2022/06/14 07:49:56;;;;;;;;;;;;;;;;;;5033111;28;19973;-64
2022/06/14 07:52:25;;;;;;;;;;;;;;;;;;5033624;28;19979;-64
2022/06/14 07:54:54;;;;;;;;;;;;;;;;;;5037051;28;19932;-64
2022/06/14 07:57:24;;;;;;;;;;;;;;;;;;5033281;28;19979;-63
2022/06/14 07:59:53;;;;;;;;;;;;;;;;;;5018421;28;19948;-64
2022/06/14 08:02:29;;;;;;;;;;;;;;;;;;5064204;23;19925;-78
2022/06/14 08:05:05;;;;;;;;;;;;;;;;;;5062468;28;19928;-78
2022/06/14 08:07:39;;;;;;;;;;;;;;;;;;5060497;28;19929;-78
2022/06/14 08:10:09;;;;;;;;;;;;;;;;;;5060774;28;19929;-77
2022/06/14 08:12:43;;;;;;;;;;;;;;;;;;5066133;28;19929;-77
2022/06/14 08:15:23;;;;;;;;;;;;;;;;;;5069321;28;19967;-79
2022/06/14 08:18:08;;;;;;;;;;;;;;;;;;5069735;28;19925;-78
2022/06/14 08:23:43;;;;;;;;;;;;;;;;;;5056104;28;19978;-78
2022/06/14 08:26:24;;;;;;;;;;;;;;;;;;5067172;28;19979;-80
2022/06/14 08:28:59;;;;;;;;;;;;;;;;;;5064547;28;19932;-79
2022/06/14 08:31:40;;;;;;;;;;;;;;;;;;5062669;28;19948;-76
2022/06/14 08:34:39;;;;;;;;;;;;;;;;;;5064563;28;19925;-78
2022/06/14 08:43:19;;;;;;;;;;;;;;;;;;5061031;28;20009;-79
2022/06/14 08:49:18;;;;;;;;;;;;;;;;;;5023480;28;19960;-78
2022/06/14 08:52:11;;;;;;;;;;;;;;;;;;5020558;28;19929;-76
2022/06/14 08:58:09;;;;;;;;;;;;;;;;;;5021966;28;19964;-77
2022/06/14 09:09:59;;;;;;;;;;;;;;;;;;4996092;28;19980;-79
2022/06/14 09:22:17;;;;;;;;;;;;;;;;;;4998918;28;19976;-78
2022/06/14 09:24:58;;;;;;;;;;;;;;;;;;5023738;28;20346;-78
2022/06/14 09:27:50;;;;;;;;;;;;;;;;;;5060829;28;19925;-78
2022/06/14 09:30:44;;;;;;;;;;;;;;;;;;5017559;28;19932;-79
2022/06/14 09:33:20;;;;;;;;;;;;;;;;;;5010148;28;20012;-78
2022/06/14 09:36:10;;;;;;;;;;;;;;;;;;5051573;28;20493;-79
2022/06/14 09:39:05;;;;;;;;;;;;;;;;;;5058848;28;19925;-76
2022/06/14 09:41:46;;;;;;;;;;;;;;;;;;5060018;28;20038;-78
2022/06/14 09:44:31;;;;;;;;;;;;;;;;;;5059624;28;20007;-78
2022/06/14 09:49:57;;;;;;;;;;;;;;;;;;5057216;28;20387;-77
2022/06/14 09:52:46;;;;;;;;;;;;;;;;;;5060607;28;19978;-77
2022/06/14 09:55:39;;;;;;;;;;;;;;;;;;5041739;28;19925;-79
2022/06/14 10:07:29;;;;;;;;;;;;;;;;;;5006810;28;19929;-78
2022/06/14 10:19:17;;;;;;;;;;;;;;;;;;4985122;28;19917;-77
2022/06/14 10:25:25;;;;;;;;;;;;;;;;;;5025134;28;19925;-79
2022/06/14 10:28:14;;;;;;;;;;;;;;;;;;5011297;28;19921;-79
2022/06/14 10:31:06;;;;;;;;;;;;;;;;;;5027404;28;19989;-79
2022/06/14 10:33:48;;;;;;;;;;;;;;;;;;5056499;28;20441;-79
2022/06/14 10:39:42;;;;;;;;;;;;;;;;;;5060582;28;19928;-77
2022/06/14 10:42:21;;;;;;;;;;;;;;;;;;5062458;28;19929;-77
2022/06/14 10:44:55;;;;;;;;;;;;;;;;;;5063327;28;19936;-78
2022/06/14 10:47:31;;;;;;;;;;;;;;;;;;5061712;28;19932;-80
2022/06/14 10:50:29;;;;;;;;;;;;;;;;;;5067353;28;19925;-80
2022/06/14 10:53:42;;;;;;;;;;;;;;;;;;5068451;28;19949;-79
2022/06/14 10:59:54;;;;;;;;;;;;;;;;;;5062913;28;19925;-79
2022/06/14 11:05:22;;;;;;;;;;;;;;;;;;5109206;27;19916;-63
2022/06/14 11:08:03;;;;;;;;;;;;;;;;;;5109703;28;19928;-63
2022/06/14 11:10:58;;;;;;;;;;;;;;;;;;5111594;28;19931;-63
2022/06/14 11:13:30;;;;;;;;;;;;;;;;;;5041570;28;20440;-62
2022/06/14 11:15:59;;;;;;;;;;;;;;;;;;5088044;28;20013;-63
2022/06/14 11:18:35;;;;;;;;;;;;;;;;;;5089182;28;19935;-63
2022/06/14 11:21:10;;;;;;;;;;;;;;;;;;5088633;28;19932;-63
2022/06/14 11:23:40;;;;;;;;;;;;;;;;;;5088787;28;19930;-63
2022/06/14 11:26:12;;;;;;;;;;;;;;;;;;5088622;28;19924;-63
2022/06/14 11:28:44;;;;;;;;;;;;;;;;;;5088281;28;19924;-63
2022/06/14 11:31:17;;;;;;;;;;;;;;;;;;5087888;28;19930;-62
2022/06/14 11:33:52;;;;;;;;;;;;;;;;;;5088908;28;19924;-63
2022/06/14 11:36:35;;;;;;;;;;;;;;;;;;5091947;28;20410;-63
2022/06/14 11:39:11;;;;;;;;;;;;;;;;;;5085558;28;19937;-63
2022/06/14 11:41:41;;;;;;;;;;;;;;;;;;5087196;28;19934;-64
2022/06/14 11:44:13;;;;;;;;;;;;;;;;;;5088671;28;20441;-63
2022/06/14 11:46:45;;;;;;;;;;;;;;;;;;5087081;28;20388;-63
2022/06/14 11:49:15;;;;;;;;;;;;;;;;;;5087987;28;20223;-64
2022/06/14 11:51:52;;;;;;;;;;;;;;;;;;5088483;28;19966;-64
2022/06/14 11:54:24;;;;;;;;;;;;;;;;;;5088535;28;20007;-64
2022/06/14 11:57:00;;;;;;;;;;;;;;;;;;5088506;28;19929;-64
2022/06/14 11:59:38;;;;;;;;;;;;;;;;;;5076519;28;19924;-63
2022/06/14 12:02:13;;;;;;;;;;;;;;;;;;5086036;28;19964;-64
2022/06/14 12:04:47;;;;;;;;;;;;;;;;;;5088309;28;20304;-64
2022/06/14 12:07:22;;;;;;;;;;;;;;;;;;5088039;28;20038;-63
2022/06/14 12:10:20;;;;;;;;;;;;;;;;;;5088067;28;19929;-64
2022/06/14 12:12:53;;;;;;;;;;;;;;;;;;5088239;28;19928;-64
2022/06/14 12:15:26;;;;;;;;;;;;;;;;;;5082240;28;19986;-64
2022/06/14 12:17:57;;;;;;;;;;;;;;;;;;5074639;28;19925;-64
2022/06/14 12:20:25;;;;;;;;;;;;;;;;;;5090820;28;20296;-64
2022/06/14 12:22:58;;;;;;;;;;;;;;;;;;5094834;28;19924;-63
2022/06/14 12:28:19;;;;;;;;;;;;;;;;;;5094984;28;19931;-63
2022/06/14 12:30:48;;;;;;;;;;;;;;;;;;5093728;28;19935;-63
2022/06/14 12:33:22;;;;;;;;;;;;;;;;;;5094675;28;20375;-63
2022/06/14 12:35:54;;;;;;;;;;;;;;;;;;5094403;28;20151;-63
2022/06/14 12:38:27;;;;;;;;;;;;;;;;;;5094233;28;19924;-63
2022/06/14 12:41:01;;;;;;;;;;;;;;;;;;5094350;28;19970;-64
2022/06/14 12:43:29;;;;;;;;;;;;;;;;;;5094449;28;19928;-64
2022/06/14 12:48:42;;;;;;;;;;;;;;;;;;5090312;28;19924;-64
2022/06/14 12:51:12;;;;;;;;;;;;;;;;;;5093967;28;19924;-64
2022/06/14 12:53:41;;;;;;;;;;;;;;;;;;5094138;28;19924;-64
2022/06/14 12:56:14;;;;;;;;;;;;;;;;;;5094293;28;20296;-64
2022/06/14 12:58:47;;;;;;;;;;;;;;;;;;5089368;28;20038;-64
2022/06/14 13:01:19;;;;;;;;;;;;;;;;;;5073558;28;19925;-64
2022/06/14 13:03:50;;;;;;;;;;;;;;;;;;5073590;28;19970;-64
2022/06/14 13:06:29;;;;;;;;;;;;;;;;;;5073427;28;19928;-64
2022/06/14 13:09:00;;;;;;;;;;;;;;;;;;5073150;28;19933;-64
2022/06/14 13:11:35;;;;;;;;;;;;;;;;;;5073285;28;20244;-64
2022/06/14 13:14:09;;;;;;;;;;;;;;;;;;5073840;28;19925;-64
2022/06/14 13:16:52;;;;;;;;;;;;;;;;;;5073948;28;19998;-66
2022/06/14 13:19:23;;;;;;;;;;;;;;;;;;5073744;28;19925;-64
2022/06/14 13:21:58;;;;;;;;;;;;;;;;;;5073089;28;19959;-64
2022/06/14 13:24:30;;;;;;;;;;;;;;;;;;5072979;28;19932;-64
2022/06/14 13:27:06;;;;;;;;;;;;;;;;;;5072564;28;20062;-64
2022/06/14 13:29:41;;;;;;;;;;;;;;;;;;5073465;28;19924;-64
2022/06/14 13:32:16;;;;;;;;;;;;;;;;;;5072988;28;19931;-63
2022/06/14 13:34:48;;;;;;;;;;;;;;;;;;5072928;28;20271;-63
2022/06/14 13:37:24;;;;;;;;;;;;;;;;;;5072260;28;19928;-64
2022/06/14 13:39:54;;;;;;;;;;;;;;;;;;5071949;28;19924;-63
2022/06/14 13:42:26;;;;;;;;;;;;;;;;;;5072168;28;19928;-65
2022/06/14 13:44:56;;;;;;;;;;;;;;;;;;5072197;28;19928;-64
2022/06/14 13:47:28;;;;;;;;;;;;;;;;;;5072706;28;20452;-64
2022/06/14 13:50:01;;;;;;;;;;;;;;;;;;5071720;28;19924;-64
2022/06/14 13:52:33;;;;;;;;;;;;;;;;;;5071573;28;19936;-65
2022/06/14 13:55:00;;;;;;;;;;;;;;;;;;5071935;28;20019;-65
2022/06/14 13:57:33;;;;;;;;;;;;;;;;;;5072137;28;20312;-65
2022/06/14 14:00:03;;;;;;;;;;;;;;;;;;5055756;28;19971;-64
2022/06/14 14:02:33;;;;;;;;;;;;;;;;;;5051461;28;19986;-65
2022/06/14 14:05:03;;;;;;;;;;;;;;;;;;5054408;28;19932;-66
2022/06/14 14:07:33;;;;;;;;;;;;;;;;;;5070809;28;20320;-64
2022/06/14 14:10:15;;;;;;;;;;;;;;;;;;5071542;28;20436;-65
2022/06/14 14:12:46;;;;;;;;;;;;;;;;;;5068558;28;20385;-65
2022/06/14 14:15:21;;;;;;;;;;;;;;;;;;5071543;28;19928;-66
2022/06/14 14:17:52;;;;;;;;;;;;;;;;;;5071617;28;19932;-66
2022/06/14 14:20:32;;;;;;;;;;;;;;;;;;5070894;28;19970;-66
2022/06/14 14:23:01;;;;;;;;;;;;;;;;;;5071276;28;19932;-66
2022/06/14 14:25:29;;;;;;;;;;;;;;;;;;5071154;28;19925;-65
2022/06/14 14:28:03;;;;;;;;;;;;;;;;;;5070937;28;19993;-65
2022/06/14 14:30:44;;;;;;;;;;;;;;;;;;5070665;28;19931;-65
2022/06/14 14:33:14;;;;;;;;;;;;;;;;;;5067714;28;19924;-66
2022/06/14 14:35:42;;;;;;;;;;;;;;;;;;5071350;28;19974;-65
2022/06/14 14:38:12;;;;;;;;;;;;;;;;;;5070913;28;19960;-66
2022/06/14 14:41:32;;;;;;;;;;;;;;;;;;5070586;28;19932;-65
2022/06/14 14:43:28;;;;;;;;;;;;;;;;;;5070661;28;20593;-65
2022/06/14 14:45:57;;;;;;;;;;;;;;;;;;5070299;28;19925;-66
2022/06/14 14:48:28;;;;;;;;;;;;;;;;;;5070337;28;19946;-66
2022/06/14 14:51:00;;;;;;;;;;;;;;;;;;5070215;28;19924;-66
2022/06/14 14:53:29;;;;;;;;;;;;;;;;;;5070541;28;19928;-65
2022/06/14 14:55:58;;;;;;;;;;;;;;;;;;5070738;28;19924;-66
2022/06/14 14:58:30;;;;;;;;;;;;;;;;;;5067613;28;19932;-66
2022/06/14 15:06:46;;;;;;;;;;;;;;;;;;5060811;28;20492;-66
2022/06/14 15:09:14;;;;;;;;;;;;;;;;;;5070466;28;20581;-65
2022/06/14 15:11:46;;;;;;;;;;;;;;;;;;5070531;28;19924;-65
2022/06/14 15:14:17;;;;;;;;;;;;;;;;;;5070569;28;19925;-65
2022/06/14 15:16:51;;;;;;;;;;;;;;;;;;5069821;28;19928;-65
2022/06/14 15:22:07;;;;;;;;;;;;;;;;;;5070596;28;20039;-66
2022/06/14 15:24:35;;;;;;;;;;;;;;;;;;5070123;28;19929;-65
2022/06/14 15:27:02;;;;;;;;;;;;;;;;;;5068957;28;19928;-65
2022/06/14 15:29:31;;;;;;;;;;;;;;;;;;5070250;28;19929;-65
2022/06/14 15:32:01;;;;;;;;;;;;;;;;;;5070463;28;20278;-65
2022/06/14 15:34:33;;;;;;;;;;;;;;;;;;5070423;28;19925;-64
2022/06/14 15:37:06;;;;;;;;;;;;;;;;;;5070192;28;19924;-64
2022/06/14 15:39:33;;;;;;;;;;;;;;;;;;5070819;28;20300;-65
2022/06/14 15:42:21;;;;;;;;;;;;;;;;;;5070231;28;19935;-66
2022/06/14 15:44:47;;;;;;;;;;;;;;;;;;5069962;28;19932;-66
2022/06/14 15:47:16;;;;;;;;;;;;;;;;;;5070159;28;19931;-64
2022/06/14 15:49:44;;;;;;;;;;;;;;;;;;5070032;28;20023;-66
2022/06/14 15:52:14;;;;;;;;;;;;;;;;;;5073548;28;20348;-65
2022/06/14 15:54:42;;;;;;;;;;;;;;;;;;5073768;28;19924;-65
2022/06/14 15:57:18;;;;;;;;;;;;;;;;;;5074003;28;19939;-64
2022/06/14 15:59:45;;;;;;;;;;;;;;;;;;5060426;28;20468;-65
2022/06/14 16:02:20;;;;;;;;;;;;;;;;;;5053613;28;19932;-64
2022/06/14 16:04:52;;;;;;;;;;;;;;;;;;5053253;28;19931;-66
2022/06/14 16:07:24;;;;;;;;;;;;;;;;;;5053130;28;20384;-65
2022/06/14 16:09:54;;;;;;;;;;;;;;;;;;5053139;28;19928;-66
2022/06/14 16:12:23;;;;;;;;;;;;;;;;;;5053723;28;20436;-65
2022/06/14 16:14:51;;;;;;;;;;;;;;;;;;5053661;28;19979;-65
2022/06/14 16:17:19;;;;;;;;;;;;;;;;;;5053648;28;19971;-64
2022/06/14 16:19:57;;;;;;;;;;;;;;;;;;5053582;28;19932;-65
2022/06/14 16:22:26;;;;;;;;;;;;;;;;;;5053412;28;19950;-65
2022/06/14 16:24:55;;;;;;;;;;;;;;;;;;5059064;28;19960;-65
2022/06/14 16:27:32;;;;;;;;;;;;;;;;;;5094029;28;19924;-65
2022/06/14 16:30:02;;;;;;;;;;;;;;;;;;5093302;28;19924;-65
2022/06/14 16:32:32;;;;;;;;;;;;;;;;;;5093491;28;19928;-65
2022/06/14 16:35:03;;;;;;;;;;;;;;;;;;5093439;28;19928;-64
2022/06/14 16:37:34;;;;;;;;;;;;;;;;;;5093446;28;19954;-65
2022/06/14 16:40:04;;;;;;;;;;;;;;;;;;5093268;28;20001;-65
2022/06/14 16:42:34;;;;;;;;;;;;;;;;;;5093720;28;20369;-64
2022/06/14 16:45:05;;;;;;;;;;;;;;;;;;5093107;28;19924;-65
2022/06/14 16:47:36;;;;;;;;;;;;;;;;;;5093285;28;19924;-64
2022/06/14 16:50:07;;;;;;;;;;;;;;;;;;5092923;28;19934;-64
2022/06/14 16:52:38;;;;;;;;;;;;;;;;;;5093094;28;20018;-63
2022/06/14 16:55:09;;;;;;;;;;;;;;;;;;5093051;28;19932;-64
2022/06/14 16:57:40;;;;;;;;;;;;;;;;;;5093057;28;19928;-65
2022/06/14 17:00:12;;;;;;;;;;;;;;;;;;5075722;28;20385;-64
2022/06/14 17:03:07;;;;;;;;;;;;;;;;;;5072701;28;19931;-65
2022/06/14 17:05:36;;;;;;;;;;;;;;;;;;5072216;28;20297;-65
2022/06/14 17:08:06;;;;;;;;;;;;;;;;;;5073086;28;20292;-65
2022/06/14 17:10:35;;;;;;;;;;;;;;;;;;5072267;28;19925;-65
2022/06/14 17:13:07;;;;;;;;;;;;;;;;;;5072433;28;19929;-65
2022/06/14 17:15:36;;;;;;;;;;;;;;;;;;5072319;28;20026;-65
2022/06/14 17:18:04;;;;;;;;;;;;;;;;;;5072453;28;20318;-65
2022/06/14 17:20:32;;;;;;;;;;;;;;;;;;5072237;28;19929;-65
2022/06/14 17:23:05;;;;;;;;;;;;;;;;;;5072418;28;19924;-64
2022/06/14 17:31:05;;;;;;;;;;;;;;;;;;5072023;28;20428;-66
2022/06/14 17:33:33;;;;;;;;;;;;;;;;;;5072348;28;19925;-65
2022/06/14 17:36:02;;;;;;;;;;;;;;;;;;5072915;28;20003;-65
2022/06/14 17:38:32;;;;;;;;;;;;;;;;;;5072460;28;20401;-66
2022/06/14 17:41:02;;;;;;;;;;;;;;;;;;5072327;28;19944;-64
2022/06/14 17:43:31;;;;;;;;;;;;;;;;;;5072916;28;19925;-64
2022/06/14 17:45:59;;;;;;;;;;;;;;;;;;5072406;28;19924;-65
2022/06/14 17:48:35;;;;;;;;;;;;;;;;;;5073453;28;19975;-64
2022/06/14 17:51:07;;;;;;;;;;;;;;;;;;5072445;28;19924;-64
2022/06/14 17:53:41;;;;;;;;;;;;;;;;;;5072571;28;20332;-65
2022/06/14 17:56:11;;;;;;;;;;;;;;;;;;5072442;28;19931;-65
2022/06/14 17:58:43;;;;;;;;;;;;;;;;;;5072792;28;19931;-64
2022/06/14 18:01:14;;;;;;;;;;;;;;;;;;5071930;28;20011;-65
2022/06/14 18:04:00;;;;;;;;;;;;;;;;;;5072662;28;19924;-63
2022/06/14 18:06:45;;;;;;;;;;;;;;;;;;5072218;28;19924;-64
2022/06/14 18:09:13;;;;;;;;;;;;;;;;;;5072318;28;20028;-64
2022/06/14 18:11:51;;;;;;;;;;;;;;;;;;5071564;28;19932;-63
2022/06/14 18:14:24;;;;;;;;;;;;;;;;;;5071249;28;19978;-64
2022/06/14 18:16:51;;;;;;;;;;;;;;;;;;5071621;28;19947;-64
2022/06/14 18:22:29;;;;;;;;;;;;;;;;;;5071214;28;19931;-65
2022/06/14 18:24:58;;;;;;;;;;;;;;;;;;5071001;28;20034;-64
2022/06/14 18:27:25;;;;;;;;;;;;;;;;;;5071101;28;19925;-63
2022/06/14 18:29:53;;;;;;;;;;;;;;;;;;5070957;28;19924;-67
2022/06/14 18:32:21;;;;;;;;;;;;;;;;;;5084745;28;19932;-65
2022/06/14 18:35:00;;;;;;;;;;;;;;;;;;5091423;28;19977;-63
2022/06/14 18:37:33;;;;;;;;;;;;;;;;;;5090981;28;19931;-62
2022/06/14 18:40:05;;;;;;;;;;;;;;;;;;5091085;28;19978;-64
2022/06/14 18:43:07;;;;;;;;;;;;;;;;;;5091483;28;19988;-63
2022/06/14 18:45:51;;;;;;;;;;;;;;;;;;5091046;28;19932;-64
2022/06/14 18:48:36;;;;;;;;;;;;;;;;;;5091132;28;20462;-64
2022/06/14 18:51:04;;;;;;;;;;;;;;;;;;5090840;28;19928;-64
2022/06/14 18:53:34;;;;;;;;;;;;;;;;;;5091016;28;19971;-64
2022/06/14 18:56:04;;;;;;;;;;;;;;;;;;5091229;28;19932;-64
2022/06/14 18:58:32;;;;;;;;;;;;;;;;;;5091252;28;20005;-63
2022/06/14 19:01:23;;;;;;;;;;;;;;;;;;5090545;28;19977;-63
2022/06/14 19:03:50;;;;;;;;;;;;;;;;;;5090767;28;20595;-64